Terminal Aerodrome Forecast
Issued by NWS Binghamton, NY

Home | Current Version | Previous Version | Text Only | Print | Product List | Glossary On
Versions: 1 2 3 4 5 6 7 8 9 10 11 12 13 14 15 16 17 18 19 20 21
000
FTUS41 KBGM 220200 AAA
TAFSYR
TAF AMD
KSYR 220208Z 2202/2224 02005KT P6SM SCT005 OVC012
      TEMPO 2202/2205 5SM -DZ OVC005
     FM221500 35010KT P6SM OVC025=

USA.gov is the U.S. government's official web portal to all federal, state and local government web resources and services.